createdAt,value
2023-04-28T00:01:02.609Z,101157.41
2023-04-28T00:04:05.486Z,101189.75
2023-04-28T00:07:07.756Z,101171.84
2023-04-28T00:10:10.005Z,101168.31
2023-04-28T00:13:12.689Z,101166.47
2023-04-28T00:16:14.494Z,101166.59
2023-04-28T00:19:17.205Z,101164.97
2023-04-28T00:22:19.463Z,101174.75
2023-04-28T00:25:21.319Z,101165.97
2023-04-28T00:28:33.641Z,101164.16
2023-04-28T00:31:36.255Z,101167.75
2023-04-28T00:34:38.066Z,101170.47
2023-04-28T00:37:39.851Z,101168.69
2023-04-28T00:40:41.929Z,101179.44
2023-04-28T00:43:45.706Z,101168.91
2023-04-28T00:46:47.973Z,101174.34
2023-04-28T00:49:50.329Z,101165.66
2023-04-28T00:52:52.662Z,101177.84
2023-04-28T00:55:57.120Z,101175.22
2023-04-28T00:58:59.569Z,101175.34
2023-04-28T01:02:01.753Z,101178.06
2023-04-28T01:05:04.156Z,101179.94
2023-04-28T01:08:06.167Z,101189.75
2023-04-28T01:11:10.480Z,101181.91
2023-04-28T01:14:12.448Z,101183.72
2023-04-28T01:17:14.759Z,101188.25
2023-04-28T01:20:17.042Z,101182.25
2023-04-28T01:23:19.036Z,101189.37
2023-04-28T01:26:21.718Z,101179.78
2023-04-28T01:29:23.704Z,101190.31
2023-04-28T01:32:25.900Z,101190.31
2023-04-28T01:35:28.011Z,101196.44
2023-04-28T01:38:29.792Z,101186.81
2023-04-28T01:41:34.466Z,101182.37
2023-04-28T01:44:36.444Z,101179.84
2023-04-28T01:47:38.661Z,101190.38
2023-04-28T01:50:40.511Z,101186.88
2023-04-28T01:53:42.727Z,101181.63
2023-04-28T01:56:44.609Z,101187.88
2023-04-28T01:59:47.421Z,101193.28
2023-04-28T02:02:49.482Z,101198.59
2023-04-28T02:05:51.355Z,101207.50
2023-04-28T02:08:53.192Z,101208.66
2023-04-28T02:11:55.168Z,101194.50
2023-04-28T02:14:57.531Z,101198.12
2023-04-28T02:17:59.381Z,101201.75
2023-04-28T02:21:10.041Z,101225.53
2023-04-28T02:24:11.793Z,101218.56
2023-04-28T02:27:13.634Z,101217.56
2023-04-28T02:30:15.673Z,101213.03
2023-04-28T02:33:17.571Z,101218.22
2023-04-28T02:36:19.405Z,101227.28
2023-04-28T02:39:26.818Z,101231.78
2023-04-28T02:42:28.605Z,101218.47
2023-04-28T02:45:30.458Z,101220.97
2023-04-28T02:48:35.517Z,101212.16
2023-04-28T02:51:37.327Z,101217.41
2023-04-28T02:54:39.229Z,101220.06
2023-04-28T02:57:41.104Z,101215.63
2023-04-28T03:00:42.911Z,101214.72
2023-04-28T03:03:44.856Z,101208.59
2023-04-28T03:06:47.030Z,101208.75
2023-04-28T03:09:49.152Z,101216.59
2023-04-28T03:12:50.997Z,101231.75
2023-04-28T03:15:53.155Z,101220.25
2023-04-28T03:18:55.303Z,101225.56
2023-04-28T03:21:57.424Z,101228.12
2023-04-28T03:24:59.398Z,101219.34
2023-04-28T03:28:01.345Z,101225.44
2023-04-28T03:31:03.570Z,101228.94
2023-04-28T03:34:05.469Z,101210.44
2023-04-28T03:37:07.362Z,101216.66
2023-04-28T03:40:09.889Z,101224.53
2023-04-28T03:43:11.843Z,101227.13
2023-04-28T03:46:13.688Z,101218.22
2023-04-28T03:49:15.806Z,101219.94
2023-04-28T03:52:17.662Z,101227.03
2023-04-28T03:55:19.444Z,101206.84
2023-04-28T03:58:21.695Z,101221.62
2023-04-28T04:01:24.103Z,101225.97
2023-04-28T04:04:27.937Z,101231.16
2023-04-28T04:07:30.001Z,101224.09
2023-04-28T04:10:31.950Z,101232.00
2023-04-28T04:13:33.786Z,101249.72
2023-04-28T04:16:36.366Z,101239.06
2023-04-28T04:19:38.097Z,101238.91
2023-04-28T04:22:40.252Z,101231.78
2023-04-28T04:25:42.348Z,101226.28
2023-04-28T04:28:44.124Z,101208.09
2023-04-28T04:31:46.099Z,101130.94
2023-04-28T04:34:48.124Z,101051.88
2023-04-28T04:37:49.949Z,101055.66
2023-04-28T04:40:51.988Z,101101.28
2023-04-28T04:43:53.976Z,101103.41
2023-04-28T04:46:56.248Z,101016.34
2023-04-28T04:49:58.603Z,101074.00
2023-04-28T04:53:00.408Z,100998.06
2023-04-28T04:56:02.749Z,100960.19
2023-04-28T04:59:04.835Z,100962.28
2023-04-28T05:02:06.973Z,101049.34
2023-04-28T05:05:20.375Z,101098.53
2023-04-28T05:08:23.372Z,101131.63
2023-04-28T05:11:26.213Z,101154.38
2023-04-28T05:14:28.353Z,101176.41
2023-04-28T05:17:30.748Z,101204.47
2023-04-28T05:20:32.969Z,101191.44
2023-04-28T05:23:34.803Z,101195.94
2023-04-28T05:26:36.978Z,101185.91
2023-04-28T05:29:38.996Z,101182.91
2023-04-28T05:32:41.094Z,101171.41
2023-04-28T05:35:43.049Z,101180.50
2023-04-28T05:38:45.181Z,101164.66
2023-04-28T05:41:47.327Z,101149.03
2023-04-28T05:44:49.285Z,101154.19
2023-04-28T05:47:51.480Z,101164.88
2023-04-28T05:50:53.610Z,101171.38
2023-04-28T05:53:56.056Z,101163.38
2023-04-28T05:57:00.121Z,101156.19
2023-04-28T06:00:04.165Z,101145.41
2023-04-28T06:03:07.036Z,101139.31
2023-04-28T06:06:10.617Z,101122.84
2023-04-28T06:09:15.076Z,101114.69
2023-04-28T06:12:17.675Z,101105.41
2023-04-28T06:15:20.037Z,101093.03
2023-04-28T06:18:24.364Z,101090.84
2023-04-28T06:21:27.401Z,101080.81
2023-04-28T06:24:29.532Z,101071.78
2023-04-28T06:27:33.021Z,101074.31
2023-04-28T06:30:35.643Z,101084.56
2023-04-28T06:33:37.558Z,101067.19
2023-04-28T06:36:40.885Z,101068.38
2023-04-28T06:39:43.274Z,101054.25
2023-04-28T06:42:45.275Z,101040.41
2023-04-28T06:45:47.373Z,101060.31
2023-04-28T06:48:49.833Z,101035.09
2023-04-28T06:51:52.228Z,101023.41
2023-04-28T06:54:54.288Z,101032.53
2023-04-28T06:57:56.356Z,101044.13
2023-04-28T07:00:58.376Z,101039.06
2023-04-28T07:04:01.116Z,101044.03
2023-04-28T07:07:04.790Z,101053.59
2023-04-28T07:10:07.659Z,101046.19
2023-04-28T07:13:09.898Z,101024.28
2023-04-28T07:16:12.331Z,101032.56
2023-04-28T07:19:15.181Z,101030.91
2023-04-28T07:22:17.744Z,101015.28
2023-04-28T07:25:20.045Z,100996.87
2023-04-28T07:28:22.201Z,100967.44
2023-04-28T07:31:24.394Z,100972.50
2023-04-28T07:34:27.563Z,100953.03
2023-04-28T07:37:31.195Z,100980.22
2023-04-28T07:40:34.004Z,100972.13
2023-04-28T07:43:36.283Z,100967.62
2023-04-28T07:46:38.303Z,100968.87
2023-04-28T07:49:40.615Z,100967.81
2023-04-28T07:52:43.455Z,100966.72
2023-04-28T07:55:46.907Z,100979.06
2023-04-28T07:58:48.940Z,100955.97
2023-04-28T08:01:50.738Z,100954.12
2023-04-28T08:04:52.772Z,100936.41
2023-04-28T08:07:54.784Z,100944.75
2023-04-28T08:10:57.313Z,100938.69
2023-04-28T08:14:02.733Z,100921.34
2023-04-28T08:17:04.655Z,100913.41
2023-04-28T08:20:07.406Z,100905.81
2023-04-28T08:23:10.015Z,100902.28
2023-04-28T08:26:11.899Z,100894.53
2023-04-28T08:29:13.772Z,100884.53
2023-04-28T08:32:15.922Z,100884.47
2023-04-28T08:35:19.296Z,100866.41
2023-04-28T08:38:24.098Z,100887.53
2023-04-28T08:41:29.955Z,100863.06
2023-04-28T08:44:39.194Z,100866.66
2023-04-28T08:47:48.215Z,100834.78
2023-04-28T08:50:52.974Z,100858.25
2023-04-28T08:57:01.214Z,100854.72
2023-04-28T09:00:03.459Z,100842.88
2023-04-28T09:03:09.123Z,100842.50
2023-04-28T09:06:11.337Z,100827.00
2023-04-28T09:09:32.968Z,100840.06
2023-04-28T09:12:37.847Z,100813.06
2023-04-28T09:15:42.907Z,100825.09
2023-04-28T09:18:59.238Z,100806.00
2023-04-28T09:22:10.507Z,100826.81
2023-04-28T09:25:22.302Z,100829.09
2023-04-28T09:28:24.267Z,100816.97
2023-04-28T09:31:28.635Z,100795.06
2023-04-28T09:34:45.664Z,100813.06
2023-04-28T09:37:47.519Z,100834.44
2023-04-28T09:40:57.131Z,100816.44
2023-04-28T09:44:17.331Z,100804.84
2023-04-28T09:47:25.574Z,100802.16
2023-04-28T09:50:27.585Z,100773.56
2023-04-28T09:53:30.315Z,100800.81
2023-04-28T09:56:34.537Z,100802.75
2023-04-28T09:59:37.020Z,100789.25
2023-04-28T10:05:44.319Z,100798.47
2023-04-28T10:08:48.320Z,100777.47
2023-04-28T10:11:50.244Z,100768.53
2023-04-28T10:14:54.875Z,100761.56
2023-04-28T10:17:57.135Z,100757.06
2023-04-28T10:21:03.202Z,100761.38
2023-04-28T10:24:08.501Z,100739.06
2023-04-28T10:27:10.527Z,100764.41
2023-04-28T10:30:26.625Z,100751.75
2023-04-28T10:33:30.727Z,100738.78
2023-04-28T10:36:52.493Z,100730.59
2023-04-28T10:40:31.601Z,100744.47
2023-04-28T10:43:34.769Z,100712.88
2023-04-28T10:47:09.445Z,100696.44
2023-04-28T10:50:11.762Z,100687.84
2023-04-28T10:53:13.592Z,100691.84
2023-04-28T10:56:25.038Z,100670.75
2023-04-28T10:59:28.409Z,100687.44
2023-04-28T11:02:40.419Z,100667.81
2023-04-28T11:06:28.323Z,100691.69
2023-04-28T11:09:33.227Z,100668.25
2023-04-28T11:12:35.018Z,100667.28
2023-04-28T11:15:37.043Z,100666.47
2023-04-28T11:18:54.896Z,100675.19
2023-04-28T11:21:59.440Z,100660.31
2023-04-28T11:25:03.053Z,100649.53
2023-04-28T11:28:07.032Z,100665.56
2023-04-28T11:31:13.426Z,100680.56
2023-04-28T11:34:19.617Z,100685.00
2023-04-28T11:37:21.663Z,100664.97
2023-04-28T11:40:23.543Z,100665.78
2023-04-28T11:43:43.744Z,100664.44
2023-04-28T11:46:55.858Z,100673.56
2023-04-28T11:49:58.131Z,100701.28
2023-04-28T11:53:00.193Z,100678.25
2023-04-28T11:56:08.196Z,100674.13
2023-04-28T11:59:11.537Z,100669.00
2023-04-28T12:02:13.890Z,100676.72
2023-04-28T12:05:20.734Z,100678.72
2023-04-28T12:08:29.577Z,100680.84
2023-04-28T12:11:31.644Z,100667.13
2023-04-28T12:15:13.589Z,100661.94
2023-04-28T12:18:19.450Z,100650.97
2023-04-28T12:21:21.922Z,100665.81
2023-04-28T12:24:26.052Z,100668.13
2023-04-28T12:27:29.083Z,100662.47
2023-04-28T12:30:33.478Z,100660.87
2023-04-28T12:33:39.514Z,100667.75
2023-04-28T12:36:41.362Z,100662.72
2023-04-28T12:39:43.697Z,100663.16
2023-04-28T12:42:46.307Z,100664.81
2023-04-28T12:45:48.149Z,100646.56
2023-04-28T12:48:50.093Z,100644.97
2023-04-28T12:51:51.951Z,100628.22
2023-04-28T12:54:53.923Z,100620.91
2023-04-28T12:57:55.910Z,100616.06
2023-04-28T13:00:57.817Z,100611.62
2023-04-28T13:03:59.917Z,100602.53
2023-04-28T13:07:02.477Z,100589.37
2023-04-28T13:10:04.576Z,100589.22
2023-04-28T13:13:06.679Z,100574.22
2023-04-28T13:16:08.800Z,100586.97
2023-04-28T13:19:13.813Z,100579.25
2023-04-28T13:22:16.196Z,100591.25
2023-04-28T13:25:18.034Z,100588.66
2023-04-28T13:28:19.849Z,100600.34
2023-04-28T13:31:21.655Z,100588.66
2023-04-28T13:34:23.788Z,100602.09
2023-04-28T13:37:25.757Z,100596.37
2023-04-28T13:40:31.251Z,100610.66
2023-04-28T13:43:33.188Z,100591.09
2023-04-28T13:46:35.040Z,100576.34
2023-04-28T13:49:37.431Z,100571.41
2023-04-28T13:52:39.898Z,100586.78
2023-04-28T13:55:41.890Z,100573.19
2023-04-28T13:58:43.804Z,100577.31
2023-04-28T14:01:46.081Z,100574.31
2023-04-28T14:04:50.602Z,100566.31
2023-04-28T14:07:56.114Z,100573.78
2023-04-28T14:10:58.162Z,100575.84
2023-04-28T14:14:00.033Z,100579.28
2023-04-28T14:17:03.359Z,100575.22
2023-04-28T14:20:05.933Z,100557.03
2023-04-28T14:23:08.363Z,100566.94
2023-04-28T14:26:10.161Z,100568.97
2023-04-28T14:29:12.315Z,100566.84
2023-04-28T14:32:21.084Z,100572.22
2023-04-28T14:35:23.028Z,100575.59
2023-04-28T14:38:25.054Z,100574.06
2023-04-28T14:41:27.403Z,100558.91
2023-04-28T14:44:29.478Z,100565.56
2023-04-28T14:47:31.462Z,100572.34
2023-04-28T14:50:33.371Z,100579.37
2023-04-28T14:53:35.698Z,100579.94
2023-04-28T14:56:37.668Z,100580.91
2023-04-28T14:59:39.580Z,100583.72
2023-04-28T15:02:41.748Z,100580.34
2023-04-28T15:05:44.051Z,100576.72
2023-04-28T15:08:46.353Z,100574.22
2023-04-28T15:11:49.333Z,100576.25
2023-04-28T15:14:53.508Z,100572.56
2023-04-28T15:18:00.644Z,100567.75
2023-04-28T15:21:02.712Z,100573.97
2023-04-28T15:24:04.700Z,100564.25
2023-04-28T15:27:06.578Z,100553.00
2023-04-28T15:30:09.529Z,100564.09
2023-04-28T15:33:17.462Z,100566.41
2023-04-28T15:36:20.450Z,100555.28
2023-04-28T15:39:25.073Z,100565.75
2023-04-28T15:42:28.553Z,100558.91
2023-04-28T15:45:30.572Z,100561.12
2023-04-28T15:48:33.694Z,100550.09
2023-04-28T15:51:36.395Z,100543.56
2023-04-28T15:54:39.632Z,100537.56
2023-04-28T15:57:43.109Z,100536.84
2023-04-28T16:00:46.476Z,100543.66
2023-04-28T16:03:49.989Z,100549.56
2023-04-28T16:06:52.973Z,100539.94
2023-04-28T16:09:55.201Z,100535.91
2023-04-28T16:13:08.554Z,100545.09
2023-04-28T16:16:12.358Z,100544.34
2023-04-28T16:19:16.184Z,100553.50
2023-04-28T16:22:18.406Z,100544.88
2023-04-28T16:25:20.116Z,100549.91
2023-04-28T16:28:22.179Z,100553.19
2023-04-28T16:31:24.038Z,100555.44
2023-04-28T16:34:26.091Z,100539.94
2023-04-28T16:37:29.607Z,100537.59
2023-04-28T16:40:31.471Z,100536.63
2023-04-28T16:43:33.442Z,100548.91
2023-04-28T16:46:35.211Z,100539.53
2023-04-28T16:49:36.980Z,100536.56
2023-04-28T16:52:40.066Z,100525.56
2023-04-28T16:55:41.885Z,100519.16
2023-04-28T16:58:43.775Z,100523.72
2023-04-28T17:01:47.084Z,100513.25
2023-04-28T17:04:50.703Z,100518.81
2023-04-28T17:07:54.748Z,100518.72
2023-04-28T17:10:56.586Z,100511.13
2023-04-28T17:13:59.185Z,100502.28
2023-04-28T17:17:01.113Z,100496.72
2023-04-28T17:20:04.843Z,100507.44
2023-04-28T17:23:07.100Z,100525.34
2023-04-28T17:26:08.971Z,100524.41
2023-04-28T17:29:11.366Z,100529.91
2023-04-28T17:32:13.660Z,100528.94
2023-04-28T17:35:15.658Z,100508.69
2023-04-28T17:38:17.804Z,100510.91
2023-04-28T17:41:20.522Z,100501.09
2023-04-28T17:44:22.660Z,100495.94
2023-04-28T17:47:24.957Z,100507.75
2023-04-28T17:50:27.109Z,100520.00
2023-04-28T17:53:28.974Z,100524.53
2023-04-28T17:56:31.106Z,100529.06
2023-04-28T17:59:35.855Z,100506.22
2023-04-28T18:02:38.095Z,100529.66
2023-04-28T18:05:39.906Z,100547.84
2023-04-28T18:08:41.935Z,100547.94
2023-04-28T18:11:44.427Z,100515.50
2023-04-28T18:14:46.599Z,100563.84
2023-04-28T18:17:48.436Z,100566.06
2023-04-28T18:20:57.182Z,100561.50
2023-04-28T18:23:59.683Z,100570.28
2023-04-28T18:27:02.434Z,100583.78
2023-04-28T18:30:04.701Z,100564.72
2023-04-28T18:33:07.967Z,100582.41
2023-04-28T18:36:13.037Z,100583.50
2023-04-28T18:39:15.241Z,100588.12
2023-04-28T18:42:17.454Z,100587.00
2023-04-28T18:45:19.514Z,100594.13
2023-04-28T18:48:21.784Z,100593.37
2023-04-28T18:51:24.054Z,100601.31
2023-04-28T18:54:29.376Z,100589.16
2023-04-28T18:57:33.629Z,100607.78
2023-04-28T19:00:37.249Z,100611.56
2023-04-28T19:03:41.022Z,100599.41
2023-04-28T19:06:44.812Z,100606.13
2023-04-28T19:09:47.218Z,100587.06
2023-04-28T19:12:49.644Z,100596.03
2023-04-28T19:15:56.208Z,100598.72
2023-04-28T19:18:58.178Z,100608.78
2023-04-28T19:22:00.991Z,100598.00
2023-04-28T19:25:05.806Z,100613.25
2023-04-28T19:28:08.872Z,100608.84
2023-04-28T19:31:11.328Z,100598.50
2023-04-28T19:34:13.989Z,100613.34
2023-04-28T19:37:20.137Z,100616.16
2023-04-28T19:40:22.130Z,100611.00
2023-04-28T19:43:24.001Z,100599.59
2023-04-28T19:46:25.856Z,100610.34
2023-04-28T19:49:28.268Z,100607.53
2023-04-28T19:52:30.173Z,100603.25
2023-04-28T19:55:32.228Z,100602.19
2023-04-28T19:58:34.294Z,100601.72
2023-04-28T20:01:41.686Z,100605.28
2023-04-28T20:04:43.835Z,100590.88
2023-04-28T20:07:47.376Z,100592.47
2023-04-28T20:10:49.164Z,100592.69
2023-04-28T20:13:51.230Z,100601.72
2023-04-28T20:16:53.184Z,100622.31
2023-04-28T20:19:55.101Z,100596.78
2023-04-28T20:22:57.004Z,100592.50
2023-04-28T20:26:01.692Z,100598.19
2023-04-28T20:29:04.877Z,100607.25
2023-04-28T20:32:08.071Z,100619.69
2023-04-28T20:35:10.292Z,100620.34
2023-04-28T20:38:12.176Z,100613.53
2023-04-28T20:41:14.287Z,100606.78
2023-04-28T20:44:16.230Z,100600.09
2023-04-28T20:47:18.074Z,100602.22
2023-04-28T20:50:20.041Z,100590.97
2023-04-28T20:53:22.289Z,100590.63
2023-04-28T20:56:24.341Z,100591.94
2023-04-28T20:59:26.373Z,100598.41
2023-04-28T21:02:28.472Z,100599.03
2023-04-28T21:05:30.631Z,100586.44
2023-04-28T21:08:32.699Z,100588.16
2023-04-28T21:11:34.553Z,100582.97
2023-04-28T21:14:39.213Z,100582.91
2023-04-28T21:17:41.106Z,100591.16
2023-04-28T21:20:42.911Z,100584.78
2023-04-28T21:23:45.886Z,100591.47
2023-04-28T21:26:47.799Z,100583.78
2023-04-28T21:29:49.986Z,100596.03
2023-04-28T21:32:53.397Z,100589.47
2023-04-28T21:35:56.325Z,100591.75
2023-04-28T21:38:58.850Z,100586.47
2023-04-28T21:42:00.688Z,100590.69
2023-04-28T21:45:02.623Z,100602.81
2023-04-28T21:48:06.364Z,100594.94
2023-04-28T21:51:08.446Z,100601.00
2023-04-28T21:54:10.928Z,100594.75
2023-04-28T21:57:12.713Z,100592.16
2023-04-28T22:00:14.992Z,100596.56
2023-04-28T22:03:17.367Z,100593.69
2023-04-28T22:06:20.137Z,100592.53
2023-04-28T22:09:22.205Z,100602.94
2023-04-28T22:12:24.172Z,100594.66
2023-04-28T22:15:26.200Z,100591.81
2023-04-28T22:18:28.700Z,100581.72
2023-04-28T22:21:32.174Z,100603.44
2023-04-28T22:24:34.507Z,100594.72
2023-04-28T22:27:36.321Z,100581.84
2023-04-28T22:30:38.386Z,100592.97
2023-04-28T22:33:40.540Z,100575.09
2023-04-28T22:36:42.805Z,100570.53
2023-04-28T22:39:44.642Z,100567.38
2023-04-28T22:42:46.560Z,100566.22
2023-04-28T22:45:48.788Z,100561.72
2023-04-28T22:48:51.027Z,100546.94
2023-04-28T22:51:52.890Z,100550.38
2023-04-28T22:54:54.726Z,100559.09
2023-04-28T22:57:57.022Z,100564.47
2023-04-28T23:01:04.208Z,100562.66
2023-04-28T23:04:06.440Z,100562.41
2023-04-28T23:07:08.418Z,100553.13
2023-04-28T23:10:13.041Z,100557.12
2023-04-28T23:13:16.545Z,100547.62
2023-04-28T23:16:18.950Z,100546.88
2023-04-28T23:19:21.032Z,100553.22
2023-04-28T23:22:23.118Z,100548.31
2023-04-28T23:25:25.403Z,100540.97
2023-04-28T23:28:27.322Z,100526.75
2023-04-28T23:31:30.632Z,100533.84
2023-04-28T23:34:32.697Z,100533.09
2023-04-28T23:37:34.528Z,100530.81
2023-04-28T23:40:36.624Z,100526.19
2023-04-28T23:43:38.455Z,100529.66
2023-04-28T23:46:40.865Z,100528.03
2023-04-28T23:49:42.896Z,100527.72
2023-04-28T23:52:46.177Z,100521.47
2023-04-28T23:55:48.446Z,100516.09
2023-04-28T23:58:51.200Z,100509.88
